Time;durP1;ratioP1;P1;durP2;ratioP2;P2;SDS_P1;SDS_P2;PMS_P1;PMS_P2;Temp;Humidity;BMP_temperature;BMP_pressure;BME280_temperature;BME280_humidity;BME280_pressure;Samples;Min_cycle;Max_cycle;Signal;HPM_P1;HPM_P2
2021/04/02 00:01:38;;;;;;;9.13;4.37;;;6.00;99.90;;;;;;4981047;28;20179;-76
2021/04/02 00:04:03;;;;;;;13.10;4.83;;;5.90;99.90;;;;;;4996833;28;20181;-76
2021/04/02 00:06:29;;;;;;;9.27;4.33;;;6.00;99.90;;;;;;5013477;28;20179;-76
2021/04/02 00:08:54;;;;;;;11.53;4.90;;;6.00;99.90;;;;;;4996870;28;20600;-76
2021/04/02 00:11:20;;;;;;;9.93;5.13;;;5.90;99.90;;;;;;4979300;28;20183;-76
2021/04/02 00:13:46;;;;;;;9.77;4.20;;;6.50;99.90;;;;;;4996419;28;20194;-77
2021/04/02 00:16:16;;;;;;;10.43;4.67;;;5.80;99.90;;;;;;4996839;28;20217;-76
2021/04/02 00:18:44;;;;;;;9.30;5.00;;;;;;;;;;5013209;28;20199;-76
2021/04/02 00:21:11;;;;;;;9.47;4.33;;;5.80;99.90;;;;;;4996312;28;20204;-76
2021/04/02 00:23:38;;;;;;;13.10;4.57;;;5.60;99.90;;;;;;4980586;28;20179;-76
2021/04/02 00:26:15;;;;;;;9.97;4.77;;;5.60;99.90;;;;;;4997464;28;20178;-76
2021/04/02 00:28:40;;;;;;;8.20;4.70;;;5.60;99.90;;;;;;4997472;28;20555;-76
2021/04/02 00:31:06;;;;;;;9.03;4.73;;;5.60;99.90;;;;;;4996061;28;20221;-76
2021/04/02 00:33:32;;;;;;;9.07;4.73;;;5.40;99.90;;;;;;4996392;28;20270;-76
2021/04/02 00:35:58;;;;;;;10.03;4.47;;;5.50;99.90;;;;;;4996595;28;20609;-76
2021/04/02 00:38:26;;;;;;;9.40;4.53;;;5.50;99.90;;;;;;4996469;28;20221;-76
2021/04/02 00:40:58;;;;;;;12.07;5.07;;;5.50;99.90;;;;;;4996476;28;20226;-76
2021/04/02 00:43:29;;;;;;;10.80;4.63;;;5.50;99.90;;;;;;5012814;28;20184;-76
2021/04/02 00:45:54;;;;;;;11.90;4.93;;;5.50;99.90;;;;;;4996245;28;20187;-76
2021/04/02 00:48:20;;;;;;;10.00;5.23;;;5.50;99.90;;;;;;4996115;28;20320;-76
2021/04/02 00:50:46;;;;;;;9.30;4.97;;;5.40;99.90;;;;;;4996101;28;20202;-76
2021/04/02 00:53:11;;;;;;;10.90;5.33;;;5.50;99.90;;;;;;5012417;28;20674;-76
2021/04/02 00:55:37;;;;;;;9.67;5.03;;;5.40;99.90;;;;;;4995925;28;20184;-76
2021/04/02 00:58:04;;;;;;;8.10;4.83;;;5.50;99.90;;;;;;4998339;28;20174;-77
2021/04/02 01:00:31;;;;;;;9.90;4.97;;;5.40;99.90;;;;;;5017139;28;20218;-76
2021/04/02 01:02:57;;;;;;;12.40;5.10;;;5.40;99.90;;;;;;5001687;28;20669;-76
2021/04/02 01:05:24;;;;;;;9.93;4.83;;;5.30;99.90;;;;;;5001769;28;20174;-77
2021/04/02 01:07:57;;;;;;;10.00;4.53;;;5.40;99.90;;;;;;4996269;28;20182;-76
2021/04/02 01:10:23;;;;;;;8.13;4.80;;;5.40;99.90;;;;;;4995625;28;20622;-76
2021/04/02 01:13:10;;;;;;;11.30;4.90;;;5.30;99.90;;;;;;4996084;28;20547;-76
2021/04/02 01:15:37;;;;;;;11.17;4.97;;;5.30;99.90;;;;;;5012477;28;20726;-76
2021/04/02 01:18:07;;;;;;;10.47;5.20;;;5.20;99.90;;;;;;5012229;28;20182;-76
2021/04/02 01:20:32;;;;;;;11.57;5.50;;;5.20;99.90;;;;;;4979599;28;20218;-76
2021/04/02 01:23:02;;;;;;;12.77;4.53;;;5.10;99.90;;;;;;4995422;28;20188;-76
2021/04/02 01:25:49;;;;;;;10.90;4.60;;;5.10;99.90;;;;;;4979888;28;20270;-76
2021/04/02 01:28:21;;;;;;;12.07;4.63;;;5.10;99.90;;;;;;5011984;28;20610;-76
2021/04/02 01:30:47;;;;;;;9.80;4.60;;;;;;;;;;5012827;28;20269;-76
2021/04/02 01:33:13;;;;;;;8.73;5.03;;;4.10;99.90;;;;;;4995581;28;20241;-76
2021/04/02 01:35:40;;;;;;;12.10;5.47;;;5.00;99.90;;;;;;4995796;28;20171;-76
2021/04/02 01:38:08;;;;;;;15.90;5.37;;;4.90;99.90;;;;;;5011904;28;20267;-76
2021/04/02 01:40:35;;;;;;;8.37;4.33;;;4.90;99.90;;;;;;4995148;28;20652;-76
2021/04/02 01:43:01;;;;;;;9.50;4.80;;;5.00;99.90;;;;;;4995328;28;20530;-76
2021/04/02 01:45:27;;;;;;;8.37;4.43;;;5.00;99.90;;;;;;4995490;28;20180;-76
2021/04/02 01:47:53;;;;;;;13.53;5.07;;;4.90;99.90;;;;;;4995036;28;20241;-76
2021/04/02 01:50:19;;;;;;;12.40;5.10;;;4.80;99.90;;;;;;4995057;28;20295;-76
2021/04/02 01:52:45;;;;;;;8.97;4.57;;;;;;;;;;4995068;28;20188;-76
2021/04/02 01:55:12;;;;;;;9.23;4.67;;;4.90;99.90;;;;;;5012555;28;20184;-76
2021/04/02 01:57:38;;;;;;;8.63;4.67;;;4.90;99.90;;;;;;4995375;28;20195;-76
2021/04/02 02:00:10;;;;;;;10.30;4.70;;;4.90;99.90;;;;;;4994848;28;20233;-76
2021/04/02 02:02:36;;;;;;;9.07;4.67;;;4.90;99.90;;;;;;4979051;28;20183;-76
2021/04/02 02:05:02;;;;;;;9.30;4.17;;;4.80;99.90;;;;;;4994488;28;20176;-76
2021/04/02 02:07:28;;;;;;;8.60;4.50;;;4.90;99.90;;;;;;4994848;28;20182;-76
2021/04/02 02:09:54;;;;;;;10.03;4.53;;;4.90;99.90;;;;;;4978742;28;20207;-76
2021/04/02 02:12:19;;;;;;;11.00;4.73;;;4.90;99.90;;;;;;4995282;28;20187;-76
2021/04/02 02:14:49;;;;;;;11.20;4.70;;;4.80;99.90;;;;;;4995066;28;20555;-76
2021/04/02 02:17:20;;;;;;;11.53;4.40;;;4.80;99.90;;;;;;4978807;28;20191;-76
2021/04/02 02:19:46;;;;;;;14.13;4.90;;;4.80;99.90;;;;;;4995304;28;20206;-76
2021/04/02 02:22:12;;;;;;;15.63;4.57;;;4.80;99.90;;;;;;4995152;28;20199;-76
2021/04/02 02:24:38;;;;;;;11.50;4.30;;;4.70;99.90;;;;;;4995041;28;20184;-76
2021/04/02 02:27:05;;;;;;;9.67;4.23;;;4.80;99.90;;;;;;4978520;28;20181;-76
2021/04/02 02:29:31;;;;;;;13.97;4.60;;;4.70;99.90;;;;;;4994973;28;20210;-76
2021/04/02 02:31:56;;;;;;;13.10;4.73;;;4.70;99.90;;;;;;4994909;28;20604;-76
2021/04/02 02:34:22;;;;;;;9.77;4.53;;;4.70;99.90;;;;;;4995756;28;20643;-76
2021/04/02 02:36:48;;;;;;;11.60;5.00;;;4.70;99.90;;;;;;4982826;28;20698;-76
2021/04/02 02:39:14;;;;;;;10.47;4.60;;;4.70;99.90;;;;;;4998455;28;20684;-76
2021/04/02 02:41:40;;;;;;;10.97;4.50;;;4.60;99.90;;;;;;4998821;28;20568;-76
2021/04/02 02:44:06;;;;;;;8.97;4.20;;;4.60;99.90;;;;;;4999033;28;20186;-76
2021/04/02 02:46:31;;;;;;;11.03;4.90;;;4.70;99.90;;;;;;4998753;28;20189;-76
2021/04/02 02:49:09;;;;;;;12.07;4.90;;;4.70;99.90;;;;;;4981805;28;20182;-76
2021/04/02 02:51:35;;;;;;;14.67;5.00;;;4.70;99.90;;;;;;4983093;28;20264;-75
2021/04/02 02:54:06;;;;;;;12.53;4.80;;;4.70;99.90;;;;;;4999058;28;20177;-76
2021/04/02 02:56:33;;;;;;;10.57;4.70;;;4.70;99.90;;;;;;4999722;28;20183;-76
2021/04/02 02:59:00;;;;;;;12.07;4.93;;;4.70;99.90;;;;;;4998930;28;20233;-76
2021/04/02 03:01:27;;;;;;;11.13;4.90;;;4.80;99.90;;;;;;4998583;28;20180;-79
2021/04/02 03:03:53;;;;;;;10.60;5.00;;;4.80;99.90;;;;;;4998282;28;20208;-79
2021/04/02 03:06:20;;;;;;;12.23;5.17;;;4.70;99.90;;;;;;4998231;28;20182;-79
2021/04/02 03:08:46;;;;;;;15.83;5.80;;;4.80;99.90;;;;;;4998257;28;20202;-79
2021/04/02 03:11:12;;;;;;;12.40;5.73;;;4.80;99.90;;;;;;4997860;28;20202;-79
2021/04/02 03:13:39;;;;;;;11.73;5.60;;;4.80;99.90;;;;;;4997704;28;20210;-79
2021/04/02 03:16:05;;;;;;;12.47;5.50;;;4.80;99.90;;;;;;5014200;28;20180;-79
2021/04/02 03:18:30;;;;;;;14.30;5.13;;;4.80;99.90;;;;;;5014092;28;20186;-79
2021/04/02 03:20:56;;;;;;;12.30;5.67;;;4.80;99.90;;;;;;4998973;28;20205;-77
2021/04/02 03:23:22;;;;;;;13.17;4.93;;;4.80;99.90;;;;;;5001609;28;20698;-77
2021/04/02 03:25:48;;;;;;;9.07;4.80;;;4.80;99.90;;;;;;5001459;28;20202;-77
2021/04/02 03:28:19;;;;;;;15.60;5.70;;;4.80;99.90;;;;;;5001278;28;20185;-78
2021/04/02 03:30:45;;;;;;;13.63;5.77;;;4.80;99.90;;;;;;5000355;28;20295;-79
2021/04/02 03:33:23;;;;;;;13.87;5.40;;;4.80;99.90;;;;;;4998087;28;20234;-79
2021/04/02 03:35:48;;;;;;;12.90;5.40;;;4.80;99.90;;;;;;4997901;28;20179;-78
2021/04/02 03:38:16;;;;;;;16.40;5.90;;;4.80;99.90;;;;;;4997532;28;20187;-78
2021/04/02 03:40:42;;;;;;;12.23;5.70;;;4.80;99.90;;;;;;4997648;28;20689;-79
2021/04/02 03:43:08;;;;;;;14.80;5.57;;;4.80;99.90;;;;;;4981617;28;20197;-77
2021/04/02 03:45:33;;;;;;;18.67;6.37;;;4.90;99.90;;;;;;4997415;28;20179;-79
2021/04/02 03:47:59;;;;;;;15.03;5.97;;;4.90;99.90;;;;;;4997353;28;20178;-79
2021/04/02 03:50:27;;;;;;;13.63;5.53;;;4.90;99.90;;;;;;4997297;28;20206;-79
2021/04/02 03:53:07;;;;;;;13.00;5.87;;;4.90;99.90;;;;;;4997396;28;20279;-79
2021/04/02 03:55:32;;;;;;;15.17;5.90;;;4.90;99.90;;;;;;5013863;28;20274;-79
2021/04/02 03:57:58;;;;;;;12.10;6.10;;;4.80;99.90;;;;;;4997007;28;20295;-77
2021/04/02 04:00:27;;;;;;;16.70;5.73;;;4.90;99.90;;;;;;4996984;28;20214;-79
2021/04/02 04:02:53;;;;;;;18.33;5.80;;;4.80;99.90;;;;;;4997948;28;20183;-79
2021/04/02 04:05:18;;;;;;;9.77;5.50;;;4.90;99.90;;;;;;4997176;28;20184;-79
2021/04/02 04:07:44;;;;;;;15.93;5.80;;;4.90;99.90;;;;;;4980611;28;20271;-77
2021/04/02 04:10:15;;;;;;;17.87;6.13;;;4.90;99.90;;;;;;4996595;28;20214;-79
2021/04/02 04:12:42;;;;;;;16.53;7.17;;;4.90;99.90;;;;;;4997310;28;20232;-78
2021/04/02 04:15:09;;;;;;;17.43;7.93;;;4.90;99.90;;;;;;4997430;28;20224;-79
2021/04/02 04:17:35;;;;;;;13.27;7.03;;;4.90;99.90;;;;;;4997246;28;20556;-79
2021/04/02 04:20:00;;;;;;;14.83;6.80;;;4.90;99.90;;;;;;4996906;28;20221;-78
2021/04/02 04:22:26;;;;;;;14.93;6.90;;;4.90;99.90;;;;;;4996480;28;20236;-78
2021/04/02 04:24:52;;;;;;;18.90;7.57;;;4.80;99.90;;;;;;4980396;28;20195;-79
2021/04/02 04:27:17;;;;;;;14.00;6.63;;;4.80;99.90;;;;;;4996735;28;20180;-79
2021/04/02 04:29:46;;;;;;;15.53;6.93;;;4.80;99.90;;;;;;4996758;28;20279;-78
2021/04/02 04:32:15;;;;;;;12.73;6.57;;;4.80;99.90;;;;;;4980635;28;20184;-78
2021/04/02 04:34:40;;;;;;;19.03;8.50;;;4.80;99.90;;;;;;4980673;28;20218;-78
2021/04/02 04:37:06;;;;;;;13.63;7.03;;;4.80;99.90;;;;;;4996635;28;20193;-78
2021/04/02 04:39:32;;;;;;;16.30;7.30;;;4.70;99.90;;;;;;4996351;28;20214;-78
2021/04/02 04:41:57;;;;;;;13.03;7.47;;;4.70;99.90;;;;;;4996303;28;20181;-78
2021/04/02 04:44:23;;;;;;;17.17;7.80;;;4.60;99.90;;;;;;4996341;28;20182;-78
2021/04/02 04:46:48;;;;;;;17.00;7.20;;;4.60;99.90;;;;;;5012451;28;20178;-79
2021/04/02 04:49:14;;;;;;;14.77;7.67;;;4.60;99.90;;;;;;4996309;28;20685;-79
2021/04/02 04:51:40;;;;;;;14.23;6.87;;;4.60;99.90;;;;;;4996380;28;20188;-79
2021/04/02 04:54:05;;;;;;;17.30;6.50;;;4.70;99.90;;;;;;4995766;28;20642;-79
2021/04/02 04:56:31;;;;;;;13.70;6.60;;;4.60;99.90;;;;;;4995709;28;20183;-78
2021/04/02 04:59:01;;;;;;;17.97;6.87;;;4.70;99.90;;;;;;4995595;28;20218;-79
2021/04/02 05:01:29;;;;;;;20.23;8.00;;;4.70;99.90;;;;;;4979682;28;20185;-79
2021/04/02 05:03:55;;;;;;;17.50;7.10;;;4.80;99.90;;;;;;4996619;28;20246;-79
2021/04/02 05:06:21;;;;;;;10.03;6.77;;;4.70;99.90;;;;;;4979691;28;20623;-79
2021/04/02 05:08:47;;;;;;;15.40;6.93;;;4.80;99.90;;;;;;4995644;28;20270;-79
2021/04/02 05:11:15;;;;;;;15.27;6.80;;;4.80;99.90;;;;;;4996103;28;20306;-78
2021/04/02 05:13:40;;;;;;;15.20;6.87;;;4.80;99.90;;;;;;4995857;28;20252;-78
2021/04/02 05:16:06;;;;;;;14.77;6.37;;;4.70;99.90;;;;;;4979262;28;20637;-78
2021/04/02 05:18:32;;;;;;;15.00;6.67;;;4.70;99.90;;;;;;4979355;28;20178;-78
2021/04/02 05:20:58;;;;;;;15.13;6.33;;;4.80;99.90;;;;;;4995364;28;20208;-78
2021/04/02 05:23:23;;;;;;;20.53;7.63;;;4.80;99.90;;;;;;4995584;28;20178;-78
2021/04/02 05:25:49;;;;;;;13.53;7.00;;;4.80;99.90;;;;;;4995518;28;20179;-78
2021/04/02 05:28:15;;;;;;;13.80;6.20;;;4.70;99.90;;;;;;4995139;28;20192;-78
2021/04/02 05:30:40;;;;;;;12.10;6.57;;;4.80;99.90;;;;;;4995307;28;20664;-78
2021/04/02 05:33:06;;;;;;;13.00;6.57;;;4.70;99.90;;;;;;4979241;28;20660;-78
2021/04/02 05:35:31;;;;;;;14.63;6.80;;;4.70;99.90;;;;;;4995242;28;20181;-78
2021/04/02 05:37:57;;;;;;;11.60;6.87;;;4.80;99.90;;;;;;4995414;28;20177;-78
2021/04/02 05:40:23;;;;;;;14.87;7.13;;;4.80;99.90;;;;;;5011686;28;20573;-78
2021/04/02 05:43:10;;;;;;;20.93;8.00;;;4.90;99.90;;;;;;4995033;28;20206;-78
2021/04/02 05:45:37;;;;;;;12.70;6.53;;;4.90;99.90;;;;;;4995321;28;20569;-78
2021/04/02 05:48:03;;;;;;;15.87;7.07;;;5.00;99.90;;;;;;4995311;28;20189;-78
2021/04/02 05:50:30;;;;;;;17.53;7.60;;;5.00;99.90;;;;;;4995357;28;20570;-78
2021/04/02 05:52:57;;;;;;;14.47;7.70;;;5.10;99.90;;;;;;4995151;28;20179;-78
2021/04/02 05:55:22;;;;;;;19.70;7.13;;;5.10;99.90;;;;;;4995118;28;20212;-78
2021/04/02 05:57:48;;;;;;;20.13;7.50;;;5.10;99.90;;;;;;4994869;28;20232;-78
2021/04/02 06:00:14;;;;;;;13.33;5.07;;;5.10;99.90;;;;;;4994599;28;20246;-78
2021/04/02 06:02:40;;;;;;;13.03;5.60;;;5.10;99.90;;;;;;5011179;28;20210;-78
2021/04/02 06:05:09;;;;;;;13.40;5.33;;;5.20;99.90;;;;;;4995211;28;20729;-78
2021/04/02 06:07:37;;;;;;;12.13;5.83;;;5.10;99.90;;;;;;4995034;28;20183;-78
2021/04/02 06:10:03;;;;;;;17.30;5.60;;;5.10;99.90;;;;;;4993768;28;20209;-78
2021/04/02 06:12:29;;;;;;;15.40;5.30;;;5.20;99.90;;;;;;4994822;28;20184;-78
2021/04/02 06:14:55;;;;;;;13.93;5.27;;;5.20;99.90;;;;;;4995205;28;20691;-78
2021/04/02 06:17:20;;;;;;;12.67;5.97;;;5.20;99.90;;;;;;4978424;28;20654;-78
2021/04/02 06:20:01;;;;;;;15.27;5.50;;;5.20;99.90;;;;;;4978361;28;20207;-78
2021/04/02 06:22:27;;;;;;;14.90;5.10;;;5.30;99.90;;;;;;4995146;28;20268;-78
2021/04/02 06:24:52;;;;;;;15.00;5.10;;;5.40;99.90;;;;;;5000320;28;20261;-78
2021/04/02 06:27:18;;;;;;;11.10;5.43;;;5.30;99.90;;;;;;5006721;28;20257;-78
2021/04/02 06:29:44;;;;;;;10.27;4.93;;;5.30;99.90;;;;;;4958340;28;20287;-78
2021/04/02 06:32:15;;;;;;;11.03;5.10;;;5.40;99.90;;;;;;4974911;28;20670;-78
2021/04/02 06:34:47;;;;;;;13.17;4.87;;;5.40;99.90;;;;;;4975250;28;20180;-78
2021/04/02 06:37:14;;;;;;;9.53;4.40;;;5.40;99.90;;;;;;4975600;28;20223;-78
2021/04/02 06:39:40;;;;;;;10.40;4.27;;;5.40;99.90;;;;;;4959048;28;20224;-78
2021/04/02 06:42:08;;;;;;;14.30;4.70;;;5.50;99.90;;;;;;4958678;28;20663;-78
2021/04/02 06:44:35;;;;;;;14.17;4.53;;;5.50;99.90;;;;;;4974826;28;20602;-78
2021/04/02 06:47:00;;;;;;;13.13;4.60;;;5.50;99.90;;;;;;4975107;28;20292;-78
2021/04/02 06:49:26;;;;;;;10.03;4.67;;;5.70;99.90;;;;;;4975395;28;20670;-79
2021/04/02 06:51:52;;;;;;;9.33;4.57;;;5.60;99.90;;;;;;4974766;28;20183;-78
2021/04/02 06:54:22;;;;;;;9.17;4.03;;;5.80;99.90;;;;;;4959191;28;20270;-78
2021/04/02 06:56:57;;;;;;;11.17;4.43;;;5.80;99.90;;;;;;4975443;28;20641;-78
2021/04/02 06:59:24;;;;;;;8.37;4.03;;;5.80;99.90;;;;;;4960493;28;20219;-78
2021/04/02 07:01:49;;;;;;;13.73;4.07;;;5.80;99.90;;;;;;4959037;28;20174;-78
2021/04/02 07:04:15;;;;;;;13.60;4.53;;;5.80;99.90;;;;;;4974902;28;20250;-78
2021/04/02 07:06:41;;;;;;;11.43;4.60;;;5.80;99.90;;;;;;4958713;28;20187;-78
2021/04/02 07:09:09;;;;;;;9.27;4.60;;;5.80;99.90;;;;;;4991170;28;20180;-78
2021/04/02 07:11:35;;;;;;;11.80;4.63;;;5.70;99.90;;;;;;4974790;28;20258;-78
2021/04/02 07:14:01;;;;;;;8.47;4.10;;;5.70;99.90;;;;;;4974983;28;20175;-78
2021/04/02 07:16:28;;;;;;;14.23;4.60;;;5.80;99.90;;;;;;4974956;28;20188;-78
2021/04/02 07:18:54;;;;;;;9.00;4.50;;;5.80;99.90;;;;;;4974733;28;20200;-78
2021/04/02 07:21:19;;;;;;;10.83;4.27;;;5.80;99.90;;;;;;4976779;28;20252;-78
2021/04/02 07:23:45;;;;;;;9.97;4.17;;;5.80;99.90;;;;;;4962322;28;20180;-78
2021/04/02 07:26:11;;;;;;;9.30;4.33;;;5.80;99.90;;;;;;4962155;28;20179;-78
2021/04/02 07:28:39;;;;;;;12.93;4.17;;;5.70;99.90;;;;;;4962097;28;20551;-78
2021/04/02 07:31:04;;;;;;;10.30;4.30;;;5.90;99.90;;;;;;4978226;28;20198;-78
2021/04/02 07:33:30;;;;;;;8.33;3.90;;;5.90;99.90;;;;;;4978297;28;20187;-78
2021/04/02 07:36:03;;;;;;;13.10;4.50;;;5.90;99.90;;;;;;4978185;28;20255;-78
2021/04/02 07:38:30;;;;;;;10.57;4.30;;;5.90;99.90;;;;;;4978676;28;20251;-78
2021/04/02 07:40:56;;;;;;;11.67;3.80;;;5.90;99.90;;;;;;4961822;28;20307;-78
2021/04/02 07:43:22;;;;;;;11.10;3.93;;;5.90;99.90;;;;;;4978081;28;20576;-78
2021/04/02 07:45:53;;;;;;;7.23;4.10;;;6.00;99.90;;;;;;4961789;28;20274;-78
2021/04/02 07:48:25;;;;;;;9.30;4.13;;;6.10;99.90;;;;;;4963275;28;20187;-78
2021/04/02 07:50:59;;;;;;;7.03;4.00;;;6.00;99.90;;;;;;4977562;28;20203;-78
2021/04/02 07:53:25;;;;;;;10.87;3.97;;;6.10;99.90;;;;;;4993959;28;20194;-78
2021/04/02 07:55:55;;;;;;;9.87;4.40;;;6.10;99.90;;;;;;4994018;28;20172;-78
2021/04/02 07:58:31;;;;;;;5.50;3.90;;;6.10;99.90;;;;;;4977928;28;20259;-78
2021/04/02 08:00:57;;;;;;;10.30;4.77;;;6.10;99.90;;;;;;4977354;28;20211;-78
2021/04/02 08:03:24;;;;;;;10.00;3.90;;;5.00;99.90;;;;;;4977614;28;20207;-78
2021/04/02 08:06:08;;;;;;;6.43;3.67;;;6.00;99.90;;;;;;4961453;28;20173;-78
2021/04/02 08:08:44;;;;;;;7.90;3.40;;;6.10;99.90;;;;;;4962028;28;20178;-78
2021/04/02 08:11:14;;;;;;;7.30;3.83;;;6.10;99.90;;;;;;4977843;28;20192;-78
2021/04/02 08:13:55;;;;;;;7.37;3.63;;;6.10;99.90;;;;;;4978077;28;20174;-78
2021/04/02 08:16:33;;;;;;;5.87;3.83;;;6.20;99.90;;;;;;4977287;28;20180;-78
2021/04/02 08:19:20;;;;;;;9.33;3.57;;;6.40;99.90;;;;;;4994285;28;20192;-78
2021/04/02 08:21:53;;;;;;;7.70;3.70;;;6.50;99.90;;;;;;4993281;28;20196;-78
2021/04/02 08:24:22;;;;;;;4.93;3.00;;;6.40;99.90;;;;;;4961749;28;20259;-78
2021/04/02 08:26:48;;;;;;;7.63;3.70;;;6.30;99.90;;;;;;4961266;28;20288;-78
2021/04/02 08:29:14;;;;;;;8.20;3.60;;;6.00;99.90;;;;;;4961112;28;20200;-78
2021/04/02 08:32:03;;;;;;;7.13;3.27;;;6.10;99.90;;;;;;4976495;28;20234;-78
2021/04/02 08:34:30;;;;;;;10.10;3.87;;;6.10;99.90;;;;;;4963914;28;20185;-78
2021/04/02 08:36:57;;;;;;;9.93;4.07;;;6.20;99.90;;;;;;4977231;28;20176;-78
2021/04/02 08:39:23;;;;;;;7.60;3.90;;;6.20;99.90;;;;;;4961245;28;20239;-78
2021/04/02 08:41:50;;;;;;;10.00;3.87;;;6.30;99.90;;;;;;4977320;28;20168;-78
2021/04/02 08:44:16;;;;;;;7.50;3.37;;;6.20;99.90;;;;;;4977632;28;20565;-78
2021/04/02 08:46:44;;;;;;;7.57;3.33;;;6.20;99.90;;;;;;4961481;28;20507;-78
2021/04/02 08:49:10;;;;;;;7.13;3.10;;;6.20;99.90;;;;;;4992854;28;20176;-78
2021/04/02 08:51:36;;;;;;;9.67;3.80;;;6.40;99.90;;;;;;4960119;28;20263;-78
2021/04/02 08:54:02;;;;;;;10.37;3.43;;;6.30;99.90;;;;;;4960982;28;20276;-78
2021/04/02 08:56:30;;;;;;;5.57;3.20;;;6.40;99.90;;;;;;4992768;28;20183;-78
2021/04/02 08:58:57;;;;;;;6.10;3.70;;;6.40;99.90;;;;;;4976124;28;20191;-78
2021/04/02 09:01:22;;;;;;;4.50;3.47;;;6.70;99.90;;;;;;4976233;28;20184;-78
2021/04/02 09:03:48;;;;;;;11.10;3.27;;;6.20;99.90;;;;;;4976648;28;20222;-78
2021/04/02 09:06:13;;;;;;;12.13;3.87;;;6.20;99.90;;;;;;4960348;28;20196;-78
2021/04/02 09:08:39;;;;;;;7.83;3.23;;;6.30;99.90;;;;;;4976302;28;20557;-78
2021/04/02 09:11:09;;;;;;;6.03;2.77;;;6.50;99.90;;;;;;4960097;28;20280;-78
2021/04/02 09:13:36;;;;;;;6.83;3.00;;;6.40;99.90;;;;;;4977066;28;20175;-79
2021/04/02 09:16:20;;;;;;;5.93;3.00;;;6.50;99.90;;;;;;4960683;28;20186;-78
2021/04/02 09:18:56;;;;;;;6.87;3.10;;;6.70;99.90;;;;;;4992611;28;20187;-78
2021/04/02 09:21:23;;;;;;;8.90;3.00;;;6.60;99.90;;;;;;4960459;28;20267;-79
2021/04/02 09:23:52;;;;;;;9.40;3.23;;;6.70;99.90;;;;;;4960276;28;20173;-78
2021/04/02 09:26:17;;;;;;;8.97;3.03;;;6.70;99.90;;;;;;4976643;28;20179;-79
2021/04/02 09:28:43;;;;;;;6.77;2.87;;;6.80;99.90;;;;;;4959787;28;20183;-78
2021/04/02 09:31:26;;;;;;;9.37;2.63;;;6.90;99.90;;;;;;4975756;28;20195;-79
2021/04/02 09:33:53;;;;;;;8.40;2.73;;;6.90;99.90;;;;;;4959904;28;20188;-79
2021/04/02 09:36:19;;;;;;;6.57;2.67;;;7.00;99.90;;;;;;4991888;28;20172;-79
2021/04/02 09:38:45;;;;;;;8.10;2.23;;;7.00;99.90;;;;;;4975749;28;20179;-79
2021/04/02 09:41:11;;;;;;;8.67;2.67;;;7.00;99.90;;;;;;4975883;28;20671;-79
2021/04/02 09:43:46;;;;;;;7.57;2.53;;;7.10;99.90;;;;;;4975470;28;20235;-78
2021/04/02 09:46:13;;;;;;;7.33;2.60;;;7.10;99.90;;;;;;4993601;28;20183;-79
2021/04/02 09:48:39;;;;;;;6.13;2.43;;;7.10;99.90;;;;;;4975823;28;20176;-79
2021/04/02 09:51:05;;;;;;;7.37;2.80;;;7.20;99.90;;;;;;4975815;28;20223;-78
2021/04/02 09:53:31;;;;;;;6.90;2.67;;;7.30;99.90;;;;;;4959637;28;20184;-79
2021/04/02 09:55:56;;;;;;;11.07;2.63;;;7.30;99.90;;;;;;4976193;28;20209;-78
2021/04/02 09:58:22;;;;;;;10.50;3.00;;;7.30;99.90;;;;;;4959604;28;20188;-78
2021/04/02 10:00:48;;;;;;;7.57;3.17;;;7.40;99.90;;;;;;4975585;28;20242;-78
2021/04/02 10:03:13;;;;;;;9.30;2.73;;;7.40;99.90;;;;;;4975797;28;20172;-78
2021/04/02 10:05:39;;;;;;;7.27;2.43;;;7.40;99.90;;;;;;4975691;28;20199;-78
2021/04/02 10:08:05;;;;;;;7.63;2.20;;;7.50;99.90;;;;;;4975703;28;20168;-78
2021/04/02 10:10:31;;;;;;;6.10;2.10;;;7.60;99.90;;;;;;4975821;28;20204;-78
2021/04/02 10:12:56;;;;;;;8.53;2.87;;;7.50;99.90;;;;;;4959551;28;20686;-78
2021/04/02 10:15:22;;;;;;;7.17;2.50;;;7.60;99.90;;;;;;4976766;28;20257;-78
2021/04/02 10:17:47;;;;;;;6.87;2.07;;;7.60;99.90;;;;;;4959495;28;20191;-78
2021/04/02 10:20:13;;;;;;;7.67;2.57;;;7.80;99.90;;;;;;4975192;28;20223;-79
2021/04/02 10:22:39;;;;;;;7.07;2.67;;;8.00;99.90;;;;;;4975741;28;20272;-79
2021/04/02 10:25:05;;;;;;;7.13;2.67;;;8.20;99.90;;;;;;4992357;28;20176;-79
2021/04/02 10:27:30;;;;;;;5.43;2.33;;;8.30;99.90;;;;;;4975704;28;20182;-78
2021/04/02 10:29:56;;;;;;;10.73;2.63;;;8.20;99.90;;;;;;4959132;28;20258;-78
2021/04/02 10:32:21;;;;;;;7.40;2.40;;;8.20;99.90;;;;;;4975331;28;20203;-78
2021/04/02 10:34:47;;;;;;;9.13;2.33;;;8.10;99.90;;;;;;4959689;28;20234;-78
2021/04/02 10:37:13;;;;;;;9.20;3.13;;;8.10;99.90;;;;;;4960050;28;20213;-78
2021/04/02 10:39:38;;;;;;;7.63;2.60;;;8.20;99.90;;;;;;4960158;28;20246;-77
2021/04/02 10:42:04;;;;;;;7.77;2.30;;;8.50;99.90;;;;;;4959059;28;20176;-78
2021/04/02 10:44:29;;;;;;;6.77;2.60;;;8.40;99.90;;;;;;4991649;28;20187;-77
2021/04/02 10:46:55;;;;;;;5.87;2.63;;;8.50;99.90;;;;;;4975955;28;20239;-79
2021/04/02 10:49:20;;;;;;;9.27;3.03;;;8.70;99.90;;;;;;4975498;28;20226;-78
2021/04/02 10:51:46;;;;;;;7.73;3.20;;;8.90;99.90;;;;;;4975838;28;20282;-79
2021/04/02 10:54:12;;;;;;;11.90;3.30;;;9.30;99.90;;;;;;4960570;28;20195;-79
2021/04/02 10:56:37;;;;;;;13.20;3.30;;;9.80;99.90;;;;;;4980808;28;20176;-80
2021/04/02 10:59:03;;;;;;;6.80;3.50;;;9.90;99.90;;;;;;4982586;28;20212;-80
2021/04/02 11:01:28;;;;;;;6.90;3.50;;;10.10;99.90;;;;;;4964698;28;20185;-79
2021/04/02 11:03:54;;;;;;;10.73;4.23;;;9.80;99.90;;;;;;4981986;28;20187;-79
2021/04/02 11:06:19;;;;;;;10.73;3.87;;;9.70;99.90;;;;;;4981368;28;20693;-79
2021/04/02 11:08:45;;;;;;;9.17;4.57;;;9.60;99.90;;;;;;4965151;28;20280;-79
2021/04/02 11:11:11;;;;;;;9.47;3.67;;;9.50;99.90;;;;;;4964872;28;20269;-81
2021/04/02 11:13:36;;;;;;;7.17;3.60;;;9.30;99.90;;;;;;4966009;28;20182;-79
2021/04/02 11:16:02;;;;;;;8.07;3.60;;;9.10;99.90;;;;;;4996193;28;20179;-77
2021/04/02 11:18:28;;;;;;;9.17;2.80;;;8.80;99.90;;;;;;4979675;28;20182;-78
2021/04/02 11:20:53;;;;;;;5.53;2.60;;;8.90;99.90;;;;;;4963345;28;20648;-78
2021/04/02 11:23:19;;;;;;;6.87;2.17;;;8.90;99.90;;;;;;4997459;28;20176;-78
2021/04/02 11:25:45;;;;;;;7.67;2.40;;;8.90;99.90;;;;;;4977137;28;20178;-78
2021/04/02 11:28:11;;;;;;;5.53;2.57;;;8.80;99.90;;;;;;4991726;28;20172;-78
2021/04/02 11:30:36;;;;;;;6.53;2.87;;;8.80;99.90;;;;;;4976965;28;20231;-78
2021/04/02 11:33:02;;;;;;;6.80;2.87;;;8.60;99.90;;;;;;4982455;28;20177;-77
2021/04/02 11:35:27;;;;;;;6.63;2.93;;;8.40;99.90;;;;;;4962947;28;20651;-77
2021/04/02 11:37:53;;;;;;;5.93;2.83;;;8.30;99.90;;;;;;4995644;28;20267;-77
2021/04/02 11:40:19;;;;;;;9.03;3.50;;;8.20;99.90;;;;;;4961887;28;20204;-77
2021/04/02 11:42:44;;;;;;;8.33;3.07;;;8.20;99.90;;;;;;4978405;28;20542;-77
2021/04/02 11:45:11;;;;;;;6.90;2.93;;;8.40;99.90;;;;;;4978125;28;20231;-77
2021/04/02 11:47:37;;;;;;;6.43;3.20;;;8.30;99.90;;;;;;4978034;28;20227;-77
2021/04/02 11:50:06;;;;;;;11.27;3.10;;;8.40;99.90;;;;;;4961898;28;20208;-77
2021/04/02 11:52:32;;;;;;;5.67;2.83;;;8.30;99.90;;;;;;4962032;28;20279;-77
2021/04/02 11:54:58;;;;;;;8.27;2.87;;;8.30;99.90;;;;;;4961553;28;20268;-77
2021/04/02 11:57:23;;;;;;;6.03;3.10;;;8.40;99.90;;;;;;4993952;28;20188;-77
2021/04/02 11:59:49;;;;;;;6.73;2.83;;;8.50;99.90;;;;;;4978068;28;20211;-78
2021/04/02 12:02:14;;;;;;;8.13;2.80;;;8.60;99.90;;;;;;4978754;28;20164;-76
2021/04/02 12:04:40;;;;;;;7.43;2.40;;;8.60;99.90;;;;;;4961828;28;20246;-77
2021/04/02 12:07:05;;;;;;;8.13;2.50;;;8.60;99.90;;;;;;4962201;28;20188;-78
2021/04/02 12:09:31;;;;;;;6.33;2.40;;;8.70;99.90;;;;;;4961527;28;20208;-77
2021/04/02 12:11:56;;;;;;;7.13;2.17;;;8.80;99.90;;;;;;4961874;28;20269;-77
2021/04/02 12:14:22;;;;;;;5.57;2.30;;;8.90;99.90;;;;;;4962250;28;20184;-77
2021/04/02 12:16:47;;;;;;;6.93;2.30;;;9.00;99.90;;;;;;4962068;28;20188;-78
2021/04/02 12:19:13;;;;;;;6.70;2.20;;;9.00;99.90;;;;;;4961990;28;20226;-78
2021/04/02 12:21:38;;;;;;;6.40;2.40;;;9.00;99.90;;;;;;4993675;28;20267;-78
2021/04/02 12:24:04;;;;;;;6.93;2.20;;;9.00;99.90;;;;;;4993607;28;20219;-78
2021/04/02 12:26:30;;;;;;;3.53;1.70;;;9.00;99.90;;;;;;4977908;28;20570;-78
2021/04/02 12:28:56;;;;;;;6.67;2.00;;;9.00;99.90;;;;;;4961678;28;20185;-77
2021/04/02 12:31:22;;;;;;;10.10;2.40;;;9.00;99.90;;;;;;4961495;28;20187;-78
2021/04/02 12:33:47;;;;;;;5.30;2.10;;;9.00;99.90;;;;;;4962140;28;20177;-78
2021/04/02 12:36:13;;;;;;;4.07;2.20;;;9.00;99.90;;;;;;4961883;28;20636;-78
2021/04/02 12:38:38;;;;;;;7.03;2.10;;;9.00;99.90;;;;;;4977360;28;20243;-79
2021/04/02 12:41:04;;;;;;;5.57;2.40;;;9.00;99.90;;;;;;4961065;28;20243;-78
2021/04/02 12:43:30;;;;;;;5.97;2.40;;;8.90;99.90;;;;;;4977641;28;20235;-79
2021/04/02 12:45:56;;;;;;;4.40;2.13;;;8.90;99.90;;;;;;4978286;28;20177;-78
2021/04/02 12:48:24;;;;;;;7.93;2.40;;;8.90;99.90;;;;;;4977796;28;20168;-78
2021/04/02 12:50:50;;;;;;;11.10;2.43;;;8.90;99.90;;;;;;4961781;28;20270;-78
2021/04/02 12:53:15;;;;;;;9.43;2.90;;;9.00;99.90;;;;;;4993917;28;20194;-79